createdAt,value
2023-01-12T00:01:31.973Z,4.50
2023-01-12T00:03:58.837Z,4.37
2023-01-12T00:06:25.807Z,4.25
2023-01-12T00:08:53.141Z,4.19
2023-01-12T00:11:20.609Z,4.06
2023-01-12T00:13:48.005Z,4.12
2023-01-12T00:16:35.000Z,4.06
2023-01-12T00:19:07.107Z,4.04
2023-01-12T00:21:45.021Z,4.17
2023-01-12T00:24:11.757Z,4.14
2023-01-12T00:26:38.300Z,4.01
2023-01-12T00:29:04.890Z,3.99
2023-01-12T00:31:31.646Z,3.87
2023-01-12T00:33:58.251Z,3.88
2023-01-12T00:36:24.806Z,3.80
2023-01-12T00:38:51.424Z,3.71
2023-01-12T00:41:37.996Z,3.68
2023-01-12T00:44:24.808Z,3.78
2023-01-12T00:46:51.471Z,3.79
2023-01-12T00:49:18.113Z,3.68
2023-01-12T00:51:44.717Z,3.91
2023-01-12T00:54:11.524Z,3.81
2023-01-12T00:56:39.386Z,3.78
2023-01-12T00:59:06.374Z,3.64
2023-01-12T01:01:34.452Z,3.58
2023-01-12T01:04:01.555Z,3.52
2023-01-12T01:06:28.136Z,3.59
2023-01-12T01:08:54.705Z,3.47
2023-01-12T01:11:21.284Z,3.54
2023-01-12T01:13:49.051Z,3.45
2023-01-12T01:16:17.249Z,3.62
2023-01-12T01:18:44.085Z,3.61
2023-01-12T01:21:12.613Z,3.56
2023-01-12T01:23:40.590Z,3.41
2023-01-12T01:26:16.795Z,3.44
2023-01-12T01:28:44.576Z,3.40
2023-01-12T01:31:17.387Z,3.30
2023-01-12T01:33:44.371Z,3.21
2023-01-12T01:36:11.938Z,3.30
2023-01-12T01:38:39.178Z,3.19
2023-01-12T01:41:07.316Z,3.29
2023-01-12T01:43:51.295Z,3.24
2023-01-12T01:46:43.593Z,3.22
2023-01-12T01:49:29.162Z,3.09
2023-01-12T01:52:07.708Z,3.07
2023-01-12T01:54:40.801Z,3.11
2023-01-12T01:57:09.734Z,3.14
2023-01-12T01:59:38.729Z,3.09
2023-01-12T02:02:06.270Z,3.10
2023-01-12T02:04:33.172Z,3.18
2023-01-12T02:07:02.124Z,3.16
2023-01-12T02:09:30.751Z,3.12
2023-01-12T02:12:15.859Z,3.16
2023-01-12T02:15:04.603Z,3.03
2023-01-12T02:17:49.610Z,3.06
2023-01-12T02:20:28.790Z,2.93
2023-01-12T02:23:26.414Z,2.85
2023-01-12T02:26:28.936Z,2.81
2023-01-12T02:29:29.281Z,2.78
2023-01-12T02:32:14.137Z,2.80
2023-01-12T02:34:53.979Z,2.75
2023-01-12T02:37:42.050Z,2.73
2023-01-12T02:40:29.611Z,2.72
2023-01-12T02:43:03.423Z,2.75
2023-01-12T02:45:48.439Z,2.73
2023-01-12T02:48:23.734Z,2.81
2023-01-12T02:51:33.384Z,2.78
2023-01-12T02:54:04.444Z,2.82
2023-01-12T02:56:38.548Z,2.89
2023-01-12T02:59:11.101Z,2.93
2023-01-12T03:01:37.920Z,2.82
2023-01-12T03:04:07.725Z,2.93
2023-01-12T03:06:42.684Z,3.01
2023-01-12T03:09:10.037Z,3.07
2023-01-12T03:11:40.543Z,3.04
2023-01-12T03:14:08.926Z,3.12
2023-01-12T03:16:38.373Z,3.29
2023-01-12T03:19:13.733Z,3.28
2023-01-12T03:21:47.347Z,3.28
2023-01-12T03:24:25.380Z,3.34
2023-01-12T03:27:08.069Z,3.14
2023-01-12T03:29:38.209Z,3.27
2023-01-12T03:32:06.439Z,3.14
2023-01-12T03:34:34.508Z,3.41
2023-01-12T03:37:12.838Z,3.32
2023-01-12T03:39:48.506Z,3.18
2023-01-12T03:42:26.336Z,3.26
2023-01-12T03:45:28.576Z,3.24
2023-01-12T03:47:58.663Z,3.15
2023-01-12T03:50:30.661Z,3.12
2023-01-12T03:53:02.171Z,3.14
2023-01-12T03:55:32.018Z,3.17
2023-01-12T03:57:59.459Z,3.23
2023-01-12T04:00:27.698Z,3.09
2023-01-12T04:03:24.639Z,3.10
2023-01-12T04:05:51.289Z,3.09
2023-01-12T04:08:18.161Z,3.11
2023-01-12T04:10:44.759Z,3.11
2023-01-12T04:13:11.361Z,3.14
2023-01-12T04:15:42.335Z,3.18
2023-01-12T04:18:09.922Z,3.21
2023-01-12T04:20:36.841Z,3.18
2023-01-12T04:23:03.604Z,3.18
2023-01-12T04:25:31.399Z,3.23
2023-01-12T04:28:04.979Z,3.22
2023-01-12T04:30:33.250Z,3.16
2023-01-12T04:33:01.159Z,3.19
2023-01-12T04:35:27.828Z,3.14
2023-01-12T04:37:54.865Z,3.02
2023-01-12T04:40:21.517Z,3.17
2023-01-12T04:43:10.974Z,3.17
2023-01-12T04:45:43.506Z,3.20
2023-01-12T04:48:13.093Z,3.25
2023-01-12T04:50:40.814Z,3.19
2023-01-12T04:53:09.566Z,3.32
2023-01-12T04:55:38.077Z,3.48
2023-01-12T04:58:04.750Z,3.45
2023-01-12T05:00:31.463Z,3.41
2023-01-12T05:03:02.065Z,3.42
2023-01-12T05:05:32.949Z,3.44
2023-01-12T05:08:20.102Z,3.37
2023-01-12T05:11:05.248Z,3.33
2023-01-12T05:13:32.231Z,3.26
2023-01-12T05:16:11.514Z,3.14
2023-01-12T05:18:38.177Z,3.19
2023-01-12T05:21:05.104Z,3.35
2023-01-12T05:23:31.694Z,3.40
2023-01-12T05:26:02.505Z,3.38
2023-01-12T05:28:30.257Z,3.41
2023-01-12T05:31:09.475Z,3.52
2023-01-12T05:33:38.323Z,3.51
2023-01-12T05:36:10.025Z,3.51
2023-01-12T05:38:36.838Z,3.48
2023-01-12T05:41:05.166Z,3.38
2023-01-12T05:43:50.448Z,3.40
2023-01-12T05:46:21.094Z,3.43
2023-01-12T05:48:48.143Z,3.42
2023-01-12T05:51:15.623Z,3.37
2023-01-12T05:53:42.271Z,3.36
2023-01-12T05:56:16.169Z,3.24
2023-01-12T05:58:42.846Z,3.31
2023-01-12T06:01:10.549Z,3.41
2023-01-12T06:03:37.603Z,3.37
2023-01-12T06:06:04.686Z,3.28
2023-01-12T06:08:31.488Z,3.36
2023-01-12T06:11:04.258Z,3.37
2023-01-12T06:13:49.152Z,3.40
2023-01-12T06:16:15.980Z,3.44
2023-01-12T06:18:42.595Z,3.39
2023-01-12T06:21:10.319Z,3.48
2023-01-12T06:23:37.183Z,3.59
2023-01-12T06:26:06.048Z,3.73
2023-01-12T06:28:32.731Z,3.60
2023-01-12T06:31:01.169Z,3.55
2023-01-12T06:33:28.644Z,3.51
2023-01-12T06:35:56.116Z,3.54
2023-01-12T06:38:25.284Z,3.66
2023-01-12T06:40:52.071Z,3.70
2023-01-12T06:43:19.189Z,3.69
2023-01-12T06:45:46.019Z,3.73
2023-01-12T06:48:12.616Z,3.79
2023-01-12T06:50:39.231Z,3.84
2023-01-12T06:53:07.149Z,3.81
2023-01-12T06:55:33.803Z,3.88
2023-01-12T06:58:04.441Z,3.89
2023-01-12T07:00:31.989Z,3.74
2023-01-12T07:02:58.751Z,3.84
2023-01-12T07:05:25.499Z,3.86
2023-01-12T07:07:58.601Z,3.65
2023-01-12T07:10:25.243Z,3.63
2023-01-12T07:12:51.919Z,3.64
2023-01-12T07:15:18.536Z,3.66
2023-01-12T07:17:45.148Z,3.60
2023-01-12T07:20:11.931Z,3.57
2023-01-12T07:22:39.364Z,3.65
2023-01-12T07:25:06.382Z,3.58
2023-01-12T07:27:32.928Z,3.66
2023-01-12T07:29:59.519Z,3.70
2023-01-12T07:32:27.422Z,3.87
2023-01-12T07:34:54.069Z,3.89
2023-01-12T07:37:20.661Z,3.94
2023-01-12T07:39:47.251Z,4.28
2023-01-12T07:42:26.039Z,4.15
2023-01-12T07:44:53.153Z,4.18
2023-01-12T07:47:19.995Z,4.08
2023-01-12T07:49:46.782Z,4.07
2023-01-12T07:52:14.188Z,4.18
2023-01-12T07:54:40.837Z,4.23
2023-01-12T07:57:10.557Z,4.27
2023-01-12T07:59:37.162Z,4.30
2023-01-12T08:02:04.615Z,4.42
2023-01-12T08:04:31.359Z,4.46
2023-01-12T08:06:57.959Z,4.62
2023-01-12T08:09:24.654Z,4.82
2023-01-12T08:11:51.269Z,4.86
2023-01-12T08:14:33.399Z,5.24
2023-01-12T08:17:02.269Z,5.50
2023-01-12T08:19:37.191Z,5.69
2023-01-12T08:22:07.970Z,5.81
2023-01-12T08:24:40.083Z,5.67
2023-01-12T08:27:09.019Z,5.59
2023-01-12T08:29:44.125Z,5.76
2023-01-12T08:32:13.358Z,5.79
2023-01-12T08:34:42.153Z,5.76
2023-01-12T08:37:12.868Z,6.01
2023-01-12T08:39:39.961Z,6.08
2023-01-12T08:42:07.064Z,5.96
2023-01-12T08:44:36.413Z,6.00
2023-01-12T08:47:05.119Z,6.01
2023-01-12T08:49:33.604Z,5.93
2023-01-12T08:52:00.320Z,5.93
2023-01-12T08:54:27.131Z,5.95
2023-01-12T08:56:54.738Z,6.02
2023-01-12T08:59:21.506Z,5.99
2023-01-12T09:01:48.750Z,5.93
2023-01-12T09:04:15.552Z,6.04
2023-01-12T09:06:45.025Z,6.02
2023-01-12T09:09:15.515Z,6.10
2023-01-12T09:11:43.402Z,6.14
2023-01-12T09:14:11.913Z,6.31
2023-01-12T09:16:38.821Z,6.48
2023-01-12T09:19:05.900Z,6.51
2023-01-12T09:21:33.276Z,6.61
2023-01-12T09:23:59.897Z,6.67
2023-01-12T09:26:32.308Z,6.69
2023-01-12T09:29:00.101Z,6.79
2023-01-12T09:31:28.381Z,6.94
2023-01-12T09:33:55.246Z,6.81
2023-01-12T09:36:33.599Z,6.93
2023-01-12T09:39:01.487Z,6.83
2023-01-12T09:41:50.537Z,6.74
2023-01-12T09:44:47.219Z,6.84
2023-01-12T09:47:36.449Z,6.73
2023-01-12T09:50:16.424Z,6.73
2023-01-12T09:52:58.042Z,6.71
2023-01-12T09:55:27.530Z,6.80
2023-01-12T09:58:27.033Z,6.85
2023-01-12T10:00:59.352Z,6.85
2023-01-12T10:03:29.384Z,6.86
2023-01-12T10:05:58.875Z,6.96
2023-01-12T10:08:36.535Z,7.19
2023-01-12T10:11:12.119Z,7.18
2023-01-12T10:13:52.430Z,7.32
2023-01-12T10:16:28.736Z,7.47
2023-01-12T10:19:01.243Z,7.47
2023-01-12T10:21:31.784Z,7.59
2023-01-12T10:23:58.623Z,7.73
2023-01-12T10:26:29.034Z,7.74
2023-01-12T10:28:56.282Z,7.70
2023-01-12T10:31:25.428Z,7.98
2023-01-12T10:34:07.032Z,7.94
2023-01-12T10:36:57.972Z,7.90
2023-01-12T10:39:39.267Z,7.69
2023-01-12T10:42:42.286Z,7.74
2023-01-12T10:45:17.327Z,7.75
2023-01-12T10:47:45.880Z,7.76
2023-01-12T10:50:23.374Z,7.89
2023-01-12T10:53:00.417Z,7.89
2023-01-12T10:55:34.851Z,7.90
2023-01-12T10:58:01.877Z,7.72
2023-01-12T11:00:29.873Z,7.84
2023-01-12T11:02:56.822Z,8.08
2023-01-12T11:05:31.432Z,8.03
2023-01-12T11:07:58.446Z,8.06
2023-01-12T11:10:35.701Z,8.20
2023-01-12T11:13:06.238Z,8.15
2023-01-12T11:15:38.915Z,8.05
2023-01-12T11:18:29.889Z,8.26
2023-01-12T11:21:10.751Z,8.44
2023-01-12T11:24:10.942Z,8.51
2023-01-12T11:26:49.271Z,8.38
2023-01-12T11:29:34.120Z,8.35
2023-01-12T11:32:08.581Z,8.39
2023-01-12T11:34:41.439Z,8.33
2023-01-12T11:37:13.716Z,8.23
2023-01-12T11:39:42.451Z,8.36
2023-01-12T11:42:40.074Z,8.28
2023-01-12T11:45:09.559Z,8.26
2023-01-12T11:47:44.572Z,8.30
2023-01-12T11:50:21.755Z,8.44
2023-01-12T11:52:48.397Z,8.34
2023-01-12T11:55:21.095Z,8.35
2023-01-12T11:57:58.348Z,8.25
2023-01-12T12:00:35.249Z,8.13
2023-01-12T12:03:40.373Z,8.23
2023-01-12T12:06:28.987Z,8.23
2023-01-12T12:09:17.254Z,8.22
2023-01-12T12:11:52.815Z,8.25
2023-01-12T12:14:31.523Z,8.20
2023-01-12T12:17:20.598Z,8.22
2023-01-12T12:20:12.464Z,8.23
2023-01-12T12:22:57.284Z,8.19
2023-01-12T12:25:47.870Z,7.96
2023-01-12T12:28:30.024Z,8.01
2023-01-12T12:31:07.857Z,7.86
2023-01-12T12:33:52.627Z,7.97
2023-01-12T12:37:04.358Z,7.72
2023-01-12T12:39:49.691Z,7.61
2023-01-12T12:43:04.408Z,7.83
2023-01-12T12:45:48.341Z,7.92
2023-01-12T12:48:29.832Z,7.88
2023-01-12T12:51:08.950Z,7.93
2023-01-12T12:53:45.410Z,7.78
2023-01-12T12:56:15.821Z,7.93
2023-01-12T12:58:46.673Z,8.01
2023-01-12T13:01:25.404Z,8.14
2023-01-12T13:03:54.691Z,8.04
2023-01-12T13:06:39.576Z,8.12
2023-01-12T13:09:10.523Z,8.09
2023-01-12T13:11:54.653Z,8.10
2023-01-12T13:14:26.953Z,8.14
2023-01-12T13:16:55.821Z,8.02
2023-01-12T13:19:36.536Z,7.95
2023-01-12T13:22:40.670Z,8.16
2023-01-12T13:25:10.029Z,8.16
2023-01-12T13:28:01.132Z,8.23
2023-01-12T13:30:30.741Z,8.26
2023-01-12T13:33:23.355Z,8.43
2023-01-12T13:35:50.003Z,8.52
2023-01-12T13:38:43.665Z,8.43
2023-01-12T13:41:13.245Z,8.47
2023-01-12T13:43:57.962Z,8.41
2023-01-12T13:46:28.413Z,8.30
2023-01-12T13:48:55.891Z,8.30
2023-01-12T13:51:40.751Z,8.23
2023-01-12T13:54:11.815Z,8.12
2023-01-12T13:56:39.257Z,8.02
2023-01-12T13:59:08.067Z,8.16
2023-01-12T14:01:41.225Z,8.19
2023-01-12T14:04:14.146Z,8.26
2023-01-12T14:06:55.928Z,8.04
2023-01-12T14:09:36.468Z,7.97
2023-01-12T14:12:08.947Z,8.06
2023-01-12T14:15:32.080Z,8.13
2023-01-12T14:18:09.119Z,7.92
2023-01-12T14:20:46.777Z,7.93
2023-01-12T14:23:28.582Z,7.90
2023-01-12T14:26:04.047Z,7.88
2023-01-12T14:28:31.650Z,7.73
2023-01-12T14:30:58.683Z,7.74
2023-01-12T14:33:27.682Z,7.79
2023-01-12T14:35:57.440Z,7.67
2023-01-12T14:38:27.641Z,7.67
2023-01-12T14:41:06.827Z,7.66
2023-01-12T14:43:54.104Z,7.63
2023-01-12T14:46:31.012Z,7.64
2023-01-12T14:49:17.422Z,7.40
2023-01-12T14:52:17.254Z,7.67
2023-01-12T14:54:45.077Z,8.07
2023-01-12T14:57:30.989Z,8.04
2023-01-12T14:59:57.804Z,7.83
2023-01-12T15:02:31.036Z,7.76
2023-01-12T15:05:04.492Z,7.48
2023-01-12T15:07:37.745Z,7.32
2023-01-12T15:10:24.533Z,7.59
2023-01-12T15:12:54.377Z,7.51
2023-01-12T15:15:25.527Z,7.36
2023-01-12T15:18:13.469Z,7.43
2023-01-12T15:21:01.009Z,7.50
2023-01-12T15:23:50.270Z,7.41
2023-01-12T15:26:17.036Z,7.31
2023-01-12T15:28:44.796Z,7.28
2023-01-12T15:31:21.474Z,7.33
2023-01-12T15:33:48.322Z,7.31
2023-01-12T15:36:14.958Z,7.15
2023-01-12T15:38:41.573Z,7.37
2023-01-12T15:41:15.795Z,7.27
2023-01-12T15:43:42.370Z,7.30
2023-01-12T15:46:18.101Z,7.13
2023-01-12T15:48:44.709Z,7.23
2023-01-12T15:51:15.877Z,7.23
2023-01-12T15:53:45.192Z,7.13
2023-01-12T15:56:15.901Z,7.23
2023-01-12T15:58:43.673Z,7.07
2023-01-12T16:01:19.819Z,7.16
2023-01-12T16:04:15.044Z,7.18
2023-01-12T16:06:37.832Z,7.12
2023-01-12T16:09:06.223Z,7.05
2023-01-12T16:11:33.950Z,6.87
2023-01-12T16:14:01.653Z,6.83
2023-01-12T16:16:29.345Z,6.90
2023-01-12T16:19:00.194Z,6.76
2023-01-12T16:21:29.233Z,7.02
2023-01-12T16:23:58.514Z,6.90
2023-01-12T16:26:30.171Z,6.78
2023-01-12T16:28:58.570Z,6.81
2023-01-12T16:31:27.079Z,6.69
2023-01-12T16:33:54.814Z,6.70
2023-01-12T16:36:22.882Z,6.76
2023-01-12T16:38:51.684Z,6.77
2023-01-12T16:41:20.040Z,6.83
2023-01-12T16:43:48.041Z,6.87
2023-01-12T16:46:16.634Z,6.69
2023-01-12T16:48:44.104Z,6.89
2023-01-12T16:51:14.637Z,6.89
2023-01-12T16:53:47.014Z,6.76
2023-01-12T16:56:16.279Z,6.59
2023-01-12T16:58:48.827Z,6.66
2023-01-12T17:01:19.137Z,6.52
2023-01-12T17:03:46.185Z,6.53
2023-01-12T17:06:15.515Z,6.51
2023-01-12T17:08:42.889Z,6.42
2023-01-12T17:11:12.380Z,6.43
2023-01-12T17:13:39.648Z,6.36
2023-01-12T17:16:11.556Z,6.25
2023-01-12T17:18:39.454Z,6.28
2023-01-12T17:21:09.369Z,6.62
2023-01-12T17:23:36.222Z,6.70
2023-01-12T17:26:05.670Z,6.84
2023-01-12T17:28:35.003Z,6.87
2023-01-12T17:31:09.535Z,6.96
2023-01-12T17:33:37.267Z,6.78
2023-01-12T17:36:08.793Z,6.64
2023-01-12T17:38:37.052Z,6.53
2023-01-12T17:41:33.931Z,6.76
2023-01-12T17:44:02.461Z,6.66
2023-01-12T17:46:29.902Z,6.78
2023-01-12T17:49:01.553Z,6.56
2023-01-12T17:51:28.437Z,6.78
2023-01-12T17:53:56.259Z,6.52
2023-01-12T17:56:24.376Z,6.60
2023-01-12T17:58:52.443Z,6.44
2023-01-12T18:01:22.190Z,6.40
2023-01-12T18:03:48.907Z,6.47
2023-01-12T18:06:25.942Z,6.47
2023-01-12T18:08:55.145Z,6.46
2023-01-12T18:11:22.341Z,6.42
2023-01-12T18:13:48.939Z,6.50
2023-01-12T18:16:16.746Z,6.33
2023-01-12T18:18:44.150Z,6.25
2023-01-12T18:21:26.149Z,6.23
2023-01-12T18:23:53.643Z,6.21
2023-01-12T18:26:25.208Z,6.22
2023-01-12T18:28:56.099Z,6.29
2023-01-12T18:31:25.396Z,6.20
2023-01-12T18:33:55.287Z,6.14
2023-01-12T18:36:24.765Z,6.07
2023-01-12T18:38:53.806Z,6.07
2023-01-12T18:41:40.834Z,6.21
2023-01-12T18:44:08.815Z,6.22
2023-01-12T18:46:57.476Z,6.25
2023-01-12T18:49:26.747Z,6.30
2023-01-12T18:52:11.927Z,6.21
2023-01-12T18:54:44.129Z,6.15
2023-01-12T18:57:12.793Z,6.11
2023-01-12T18:59:41.693Z,6.05
2023-01-12T19:02:11.911Z,5.99
2023-01-12T19:05:01.870Z,6.04
2023-01-12T19:07:31.743Z,5.79
2023-01-12T19:09:59.294Z,5.72
2023-01-12T19:12:26.908Z,5.75
2023-01-12T19:15:12.096Z,5.76
2023-01-12T19:17:42.138Z,5.76
2023-01-12T19:20:14.298Z,5.79
2023-01-12T19:22:59.404Z,5.86
2023-01-12T19:25:45.414Z,6.00
2023-01-12T19:28:32.764Z,6.00
2023-01-12T19:31:01.168Z,5.84
2023-01-12T19:33:28.104Z,5.96
2023-01-12T19:35:54.785Z,5.94
2023-01-12T19:38:21.673Z,6.05
2023-01-12T19:40:48.260Z,6.01
2023-01-12T19:43:25.180Z,5.91
2023-01-12T19:45:54.448Z,6.04
2023-01-12T19:48:23.592Z,6.02
2023-01-12T19:50:51.166Z,5.91
2023-01-12T19:53:20.992Z,5.70
2023-01-12T19:55:49.984Z,5.72
2023-01-12T19:58:16.630Z,5.64
2023-01-12T20:00:45.035Z,5.57
2023-01-12T20:03:14.361Z,5.44
2023-01-12T20:05:42.123Z,5.37
2023-01-12T20:08:09.665Z,5.32
2023-01-12T20:10:38.109Z,5.21
2023-01-12T20:13:06.395Z,5.29
2023-01-12T20:15:34.311Z,5.20
2023-01-12T20:18:03.041Z,5.14
2023-01-12T20:20:30.197Z,5.11
2023-01-12T20:22:57.334Z,5.12
2023-01-12T20:25:27.262Z,5.14
2023-01-12T20:27:54.720Z,5.08
2023-01-12T20:30:36.814Z,5.20
2023-01-12T20:33:04.927Z,5.24
2023-01-12T20:35:32.380Z,5.30
2023-01-12T20:37:59.009Z,5.30
2023-01-12T20:40:25.641Z,5.27
2023-01-12T20:42:52.282Z,5.24
2023-01-12T20:45:19.058Z,5.26
2023-01-12T20:47:45.877Z,5.34
2023-01-12T20:50:14.079Z,5.35
2023-01-12T20:52:41.558Z,5.42
2023-01-12T20:55:08.723Z,5.47
2023-01-12T20:57:41.677Z,5.56
2023-01-12T21:00:10.604Z,5.70
2023-01-12T21:02:37.824Z,5.73
2023-01-12T21:05:04.800Z,5.71
2023-01-12T21:07:31.595Z,5.67
2023-01-12T21:09:58.223Z,5.68
2023-01-12T21:12:27.392Z,5.66
2023-01-12T21:14:54.445Z,5.77
2023-01-12T21:17:21.557Z,6.13
2023-01-12T21:19:48.297Z,6.41
2023-01-12T21:22:15.110Z,6.59
2023-01-12T21:24:41.787Z,6.48
2023-01-12T21:27:08.393Z,6.59
2023-01-12T21:29:35.286Z,6.59
2023-01-12T21:32:01.980Z,6.59
2023-01-12T21:34:28.588Z,6.36
2023-01-12T21:36:55.190Z,6.28
2023-01-12T21:39:21.747Z,6.28
2023-01-12T21:42:06.902Z,6.46
2023-01-12T21:44:33.458Z,6.43
2023-01-12T21:47:00.072Z,6.39
2023-01-12T21:49:26.655Z,6.43
2023-01-12T21:51:53.225Z,6.62
2023-01-12T21:54:19.896Z,6.81
2023-01-12T21:56:46.488Z,6.55
2023-01-12T21:59:13.213Z,6.46
2023-01-12T22:01:39.965Z,6.37
2023-01-12T22:04:06.764Z,6.35
2023-01-12T22:06:33.401Z,6.38
2023-01-12T22:08:59.954Z,7.11
2023-01-12T22:11:26.642Z,6.89
2023-01-12T22:13:53.229Z,6.77
2023-01-12T22:16:19.933Z,6.89
2023-01-12T22:18:52.432Z,7.05
2023-01-12T22:21:20.850Z,6.93
2023-01-12T22:23:47.949Z,6.90
2023-01-12T22:26:16.304Z,6.89
2023-01-12T22:28:44.603Z,6.84
2023-01-12T22:31:13.331Z,6.75
2023-01-12T22:33:43.157Z,6.91
2023-01-12T22:36:09.853Z,7.17
2023-01-12T22:38:36.470Z,7.12
2023-01-12T22:41:05.024Z,7.01
2023-01-12T22:43:31.788Z,7.05
2023-01-12T22:45:58.440Z,7.12
2023-01-12T22:48:25.952Z,7.10
2023-01-12T22:50:55.923Z,6.99
2023-01-12T22:53:24.049Z,7.06
2023-01-12T22:55:51.720Z,6.95
2023-01-12T22:58:18.755Z,6.85
2023-01-12T23:00:45.643Z,6.94
2023-01-12T23:03:13.703Z,7.07
2023-01-12T23:05:49.247Z,7.19
2023-01-12T23:08:16.593Z,7.02
2023-01-12T23:10:44.267Z,7.14
2023-01-12T23:13:19.306Z,7.13
2023-01-12T23:15:53.344Z,6.97
2023-01-12T23:18:22.219Z,6.89
2023-01-12T23:20:49.364Z,7.00
2023-01-12T23:23:18.104Z,7.11
2023-01-12T23:25:46.609Z,7.20
2023-01-12T23:28:14.390Z,7.17
2023-01-12T23:30:41.131Z,7.08
2023-01-12T23:33:07.857Z,7.02
2023-01-12T23:35:39.860Z,7.18
2023-01-12T23:38:07.677Z,7.13
2023-01-12T23:40:34.230Z,7.04
2023-01-12T23:43:01.448Z,6.90
2023-01-12T23:45:28.401Z,7.00
2023-01-12T23:47:55.058Z,7.21
2023-01-12T23:50:21.643Z,7.13
2023-01-12T23:52:50.017Z,7.21
2023-01-12T23:55:17.179Z,7.19
2023-01-12T23:57:47.269Z,7.38
